Relatórios de METAR próximas

 

LPAR - Alverca, Portugal
Distance from station: S 38km
Actualizado: 22/06/2021 17:00
NÃO Actual
Few Clouds
Few Clouds
 Vento de N
Vento: N 24 km/h
Temperatura: 22°C
Ponto de Orvalho: 13°C
Humidade: 57%
Barómetro: 1018 hPa
Nuvens: Few Clouds
Visibilidade: 10 km
Cloud details: Few Clouds 1219 m
2021/06/22 16:00 LPAR 221600Z 35013KT 300V010 9999 FEW040 22/13 Q1018
LPPT - Lisbon/Portela, Portugal
Distance from station: S 52km
Actualizado: 22/06/2021 23:30
Few Clouds
Few Clouds
 Vento de NO
Vento: NO 15 km/h
Temperatura: 16°C
Ponto de Orvalho: 13°C
Humidade: 83%
Barómetro: 1020 hPa
Nuvens: Few Clouds
Visibilidade: 10 km
Cloud details: Few Clouds 488 m
2021/06/22 22:30 LPPT 222230Z 31008KT 280V350 9999 FEW016 16/13 Q1020 WS R21
 
LPST - Sintra/Granja (a, Portugal
Distance from station: SSO 53km
Actualizado: 22/06/2021 15:00
NÃO Actual
Parc. Nublado
Parc. Nublado
 Vento de NNO
Vento: NNO 26 km/h, Rajada: 44 km/h
Temperatura: 19°C
Ponto de Orvalho: 14°C
Humidade: 73%
Barómetro: 1019 hPa
Nuvens: Parc. Nublado
Visibilidade: 10 km
Cloud details: Parc. Nublado 610 m
Parc. Nublado 914 m
2021/06/22 14:00 LPST 221400Z 34014G24KT 310V030 9999 SCT020 SCT030 19/14 Q1019
LPMT - Montijo (por-Afb, Portugal
Distance from station: S 59km
Actualizado: 22/06/2021 17:00
NÃO Actual
Few Clouds
Few Clouds
 Vento de NNO
Vento: NNO 28 km/h
Temperatura: 23°C
Ponto de Orvalho: 14°C
Humidade: 57%
Barómetro: 1018 hPa
Nuvens: Few Clouds
Visibilidade: 10 km
Cloud details: Few Clouds 1158 m
2021/06/22 16:00 LPMT 221600Z 34015KT 9999 FEW038 23/14 Q1018
 
LPCS - Cascais, Portugal
Distance from station: SSO 63km
Actualizado: 22/06/2021 21:30
NÃO Actual
Few Clouds
Few Clouds
 Vento de N
Vento: N 20 km/h, Rajada: 44 km/h
Temperatura: 16°C
Ponto de Orvalho: 13°C
Humidade: 83%
Barómetro: 1020 hPa
Nuvens: Few Clouds
Visibilidade: 10 km
Cloud details: Few Clouds 427 m
2021/06/22 20:30 LPCS 222030Z 36011G24KT 340V070 9999 4000NW FEW014 16/13 Q1020
LPMR - Monte Real(Por-A, Portugal
Distance from station: N 67km
Actualizado: 22/06/2021 17:00
NÃO Actual
Few Clouds
Few Clouds
 Vento de N
Vento: N 35 km/h
Temperatura: 20°C
Ponto de Orvalho: 14°C
Humidade: 69%
Barómetro: 1019 hPa
Nuvens: Few Clouds
Visibilidade: 10 km
Cloud details: Few Clouds 549 m
2021/06/22 16:00 LPMR 221600Z 35019KT 9999 FEW018 20/14 Q1019